Time;durP1;ratioP1;P1;durP2;ratioP2;P2;SDS_P1;SDS_P2;PMS_P1;PMS_P2;Temp;Humidity;BMP_temperature;BMP_pressure;BME280_temperature;BME280_humidity;BME280_pressure;Samples;Min_cycle;Max_cycle;Signal;HPM_P1;HPM_P2
2022/04/13 00:00:15;;;;;;;7.60;5.05;;;;;;;5.85;61.11;100284.25;4485075;32;34475;-72
2022/04/13 00:02:43;;;;;;;9.07;5.47;;;;;;;5.83;60.90;100284.47;4482909;32;33964;-72
2022/04/13 00:05:10;;;;;;;8.30;5.62;;;;;;;6.07;59.96;100299.25;4485147;32;33897;-71
2022/04/13 00:07:38;;;;;;;8.07;5.25;;;;;;;5.63;61.39;100291.69;4484267;32;34548;-69
2022/04/13 00:10:06;;;;;;;9.35;4.97;;;;;;;5.54;61.68;100296.41;4468470;32;33512;-70
2022/04/13 00:12:33;;;;;;;8.10;4.90;;;;;;;5.72;61.42;100301.22;4469433;32;33700;-69
2022/04/13 00:15:02;;;;;;;8.32;5.15;;;;;;;5.16;63.10;100302.25;4469765;32;34267;-69
2022/04/13 00:17:31;;;;;;;7.32;5.05;;;;;;;5.08;62.91;100305.13;4469536;32;34241;-72
2022/04/13 00:20:00;;;;;;;8.80;5.03;;;;;;;5.70;61.09;100304.13;4484311;32;33679;-71
2022/04/13 00:22:27;;;;;;;7.22;4.75;;;;;;;5.52;61.49;100312.75;4484229;32;33923;-68
2022/04/13 00:24:55;;;;;;;8.23;5.12;;;;;;;5.43;62.10;100295.13;4485152;32;34335;-71
2022/04/13 00:27:22;;;;;;;9.63;5.40;;;;;;;5.09;62.92;100309.47;4484861;32;33714;-69
2022/04/13 00:29:49;;;;;;;7.97;4.80;;;;;;;5.35;62.34;100301.50;4469148;32;31921;-72
2022/04/13 00:32:17;;;;;;;7.62;4.95;;;;;;;4.79;63.93;100307.00;4468100;32;34624;-70
2022/04/13 00:34:45;;;;;;;8.50;4.93;;;;;;;5.35;62.00;100306.88;4469074;32;35067;-73
2022/04/13 00:37:13;;;;;;;8.70;5.40;;;;;;;5.44;61.61;100299.50;4469426;32;34081;-69
2022/04/13 00:39:45;;;;;;;6.70;4.72;;;;;;;4.94;63.20;100302.34;4482241;32;33451;-69
2022/04/13 00:42:13;;;;;;;7.20;4.65;;;;;;;4.96;62.93;100304.03;4484763;32;33617;-72
2022/04/13 00:44:40;;;;;;;7.85;4.47;;;;;;;5.50;61.06;100305.91;4485040;32;33871;-68
2022/04/13 00:47:08;;;;;;;9.10;4.78;;;;;;;5.31;61.64;100304.81;4483615;32;32377;-70
2022/04/13 00:49:37;;;;;;;7.55;4.80;;;;;;;5.44;60.82;100306.72;4470753;32;33715;-71
2022/04/13 00:52:07;;;;;;;8.68;4.85;;;;;;;5.23;61.56;100305.81;4467922;32;33978;-69
2022/04/13 00:54:35;;;;;;;9.63;5.45;;;;;;;5.32;61.24;100307.31;4468881;32;34056;-69
2022/04/13 00:57:13;;;;;;;8.38;4.93;;;;;;;4.66;63.94;100299.69;4467547;32;34032;-68
2022/04/13 00:59:47;;;;;;;7.75;4.80;;;;;;;4.85;62.78;100310.78;4481641;32;33499;-70
2022/04/13 01:02:16;;;;;;;7.22;4.62;;;;;;;4.44;64.40;100311.53;4483550;32;34408;-68
2022/04/13 01:04:45;;;;;;;7.72;4.95;;;;;;;4.57;63.92;100305.44;4467650;32;34161;-71
2022/04/13 01:07:13;;;;;;;6.37;4.45;;;;;;;4.73;63.06;100310.50;4467192;32;33575;-69
2022/04/13 01:09:41;;;;;;;7.75;4.62;;;;;;;5.15;62.02;100305.97;4479929;32;33804;-69
2022/04/13 01:12:09;;;;;;;6.75;4.40;;;;;;;5.11;61.09;100310.09;4484271;32;34961;-69
2022/04/13 01:14:36;;;;;;;7.00;4.10;;;;;;;5.32;60.35;100318.06;4486639;32;34149;-71
2022/04/13 01:17:04;;;;;;;6.95;4.45;;;;;;;5.44;59.96;100312.97;4486018;32;33787;-69
2022/04/13 01:19:32;;;;;;;6.97;4.55;;;;;;;5.35;60.06;100312.28;4484802;32;34497;-72
2022/04/13 01:22:21;;;;;;;6.40;4.28;;;;;;;4.89;61.85;100312.88;4486356;32;33862;-69
2022/04/13 01:24:49;;;;;;;6.75;4.32;;;;;;;5.24;60.95;100318.22;4485278;32;35195;-72
2022/04/13 01:27:17;;;;;;;5.95;4.22;;;;;;;5.22;60.74;100319.47;4483666;32;33861;-67
2022/04/13 01:29:46;;;;;;;7.85;4.10;;;;;;;5.47;59.46;100323.31;4486471;32;32519;-72
2022/04/13 01:32:14;;;;;;;6.12;4.05;;;;;;;5.86;57.57;100312.88;4484874;32;34667;-71
2022/04/13 01:34:49;;;;;;;6.00;3.87;;;;;;;5.71;58.23;100318.41;4486262;32;34177;-71
2022/04/13 01:37:16;;;;;;;;;;;;;;;5.65;57.98;100321.91;4485432;32;34587;-72
2022/04/13 01:39:44;;;;;;;6.22;4.35;;;;;;;5.67;58.60;100320.66;4471057;32;34320;-69
2022/04/13 01:42:12;;;;;;;7.55;4.30;;;;;;;5.24;59.72;100323.59;4469194;32;33793;-70
2022/04/13 01:44:41;;;;;;;7.53;4.25;;;;;;;5.39;58.86;100328.84;4470650;32;34952;-67
2022/04/13 01:47:09;;;;;;;5.72;3.85;;;;;;;4.99;60.11;100330.50;4470616;32;34640;-72
2022/04/13 01:49:37;;;;;;;6.80;4.60;;;;;;;5.20;60.18;100332.28;4484411;32;33117;-69
2022/04/13 01:52:05;;;;;;;7.72;4.82;;;;;;;5.09;60.33;100331.81;4486371;32;33835;-70
2022/04/13 01:54:33;;;;;;;8.52;4.72;;;;;;;5.06;60.36;100334.91;4485060;32;33424;-67
2022/04/13 01:57:01;;;;;;;7.12;4.87;;;;;;;4.65;61.57;100338.37;4483540;32;33888;-70
2022/04/13 01:59:29;;;;;;;9.45;5.30;;;;;;;4.90;61.11;100338.75;4471715;32;33498;-69
2022/04/13 02:01:56;;;;;;;9.25;5.32;;;;;;;4.66;61.91;100333.81;4468951;32;34624;-68
2022/04/13 02:04:25;;;;;;;7.90;4.75;;;;;;;4.99;60.97;100342.13;4470379;32;34858;-69
2022/04/13 02:06:53;;;;;;;7.97;4.78;;;;;;;5.00;60.93;100348.31;4469517;32;33996;-70
2022/04/13 02:09:21;;;;;;;6.50;4.50;;;;;;;4.97;61.08;100338.78;4481280;32;33574;-69
2022/04/13 02:11:48;;;;;;;7.32;4.82;;;;;;;5.09;60.59;100339.88;4486201;32;34798;-71
2022/04/13 02:14:16;;;;;;;7.93;4.97;;;;;;;4.96;60.46;100344.34;4486209;32;34065;-68
2022/04/13 02:16:44;;;;;;;9.80;4.55;;;;;;;5.39;59.28;100336.94;4485894;32;33812;-69
2022/04/13 02:19:12;;;;;;;8.93;4.53;;;;;;;5.01;60.57;100336.50;4474284;32;33451;-69
2022/04/13 02:21:39;;;;;;;7.28;4.30;;;;;;;4.56;62.75;100339.53;4469072;32;33915;-70
2022/04/13 02:24:07;;;;;;;8.90;4.55;;;;;;;4.47;62.11;100343.38;4469769;32;34184;-69
2022/04/13 02:26:35;;;;;;;6.72;4.90;;;;;;;4.31;63.17;100341.81;4469416;32;34165;-71
2022/04/13 02:29:03;;;;;;;7.35;4.90;;;;;;;5.18;60.03;100343.22;4471075;32;33628;-69
2022/04/13 02:31:30;;;;;;;9.35;4.97;;;;;;;4.57;61.65;100340.38;4456174;32;34675;-69
2022/04/13 02:33:58;;;;;;;7.53;4.95;;;;;;;3.66;64.86;100346.31;4469031;32;34188;-72
2022/04/13 02:36:25;;;;;;;9.55;5.30;;;;;;;3.83;63.72;100347.75;4470268;32;34674;-69
2022/04/13 02:38:54;;;;;;;8.25;5.10;;;;;;;3.63;65.04;100341.34;4480611;32;33585;-68
2022/04/13 02:41:21;;;;;;;6.28;4.35;;;;;;;4.34;63.05;100337.88;4486195;32;34010;-70
2022/04/13 02:43:49;;;;;;;6.60;4.50;;;;;;;4.31;62.74;100348.00;4485947;32;34179;-69
2022/04/13 02:46:16;;;;;;;6.65;4.53;;;;;;;4.39;62.84;100347.03;4484533;32;34662;-68
2022/04/13 02:48:44;;;;;;;8.27;5.25;;;;;;;4.64;61.97;100351.97;4475475;32;33606;-72
2022/04/13 02:51:11;;;;;;;7.22;4.62;;;;;;;4.49;61.50;100349.37;4468918;32;33118;-69
2022/04/13 02:53:39;;;;;;;7.80;5.37;;;;;;;4.42;62.20;100352.03;4469996;32;34115;-69
2022/04/13 02:56:06;;;;;;;7.90;4.47;;;;;;;4.60;61.81;100350.72;4468926;32;33729;-67
2022/04/13 02:58:34;;;;;;;7.28;5.00;;;;;;;4.42;61.90;100348.50;4478389;32;34450;-68
2022/04/13 03:01:03;;;;;;;7.93;5.00;;;;;;;4.47;61.83;100344.22;4485667;32;33611;-71
2022/04/13 03:03:31;;;;;;;7.62;4.70;;;;;;;4.85;61.29;100338.50;4483915;32;33875;-67
2022/04/13 03:05:59;;;;;;;7.68;4.93;;;;;;;4.87;61.02;100349.88;4484634;32;34514;-67
2022/04/13 03:08:26;;;;;;;8.27;5.15;;;;;;;4.68;61.62;100358.63;4477564;32;34174;-72
2022/04/13 03:10:54;;;;;;;9.30;5.05;;;;;;;4.43;62.21;100348.31;4468650;32;34713;-69
2022/04/13 03:13:21;;;;;;;7.32;4.85;;;;;;;4.26;62.64;100355.81;4470141;32;34139;-70
2022/04/13 03:15:49;;;;;;;8.45;4.97;;;;;;;4.28;62.81;100353.78;4468635;32;34003;-67
2022/04/13 03:18:17;;;;;;;10.52;5.60;;;;;;;3.67;64.76;100361.38;4475914;32;33617;-69
2022/04/13 03:20:44;;;;;;;8.48;5.32;;;;;;;3.95;64.12;100358.78;4485612;32;34210;-69
2022/04/13 03:23:11;;;;;;;8.73;5.78;;;;;;;4.30;62.83;100362.47;4485033;32;34983;-69
2022/04/13 03:25:39;;;;;;;10.63;6.05;;;;;;;4.08;63.88;100360.78;4485445;32;33803;-71
2022/04/13 03:28:07;;;;;;;8.27;5.50;;;;;;;3.90;64.02;100366.59;4480522;32;34367;-71
2022/04/13 03:30:34;;;;;;;8.52;5.90;;;;;;;4.33;62.88;100361.25;4470101;32;33917;-69
2022/04/13 03:33:02;;;;;;;9.02;6.12;;;;;;;4.17;63.23;100373.09;4469925;32;35115;-72
2022/04/13 03:35:30;;;;;;;8.35;5.47;;;;;;;3.68;65.40;100374.62;4469355;32;33813;-70
2022/04/13 03:37:58;;;;;;;9.88;6.07;;;;;;;4.29;63.36;100371.53;4469663;32;33808;-69
2022/04/13 03:40:26;;;;;;;8.75;5.62;;;;;;;4.18;64.20;100379.28;4469895;32;33819;-69
2022/04/13 03:42:53;;;;;;;8.00;5.45;;;;;;;4.15;63.71;100377.81;4469824;32;35095;-69
2022/04/13 03:45:20;;;;;;;7.18;5.25;;;;;;;4.11;63.37;100380.03;4468484;32;33524;-72
2022/04/13 03:47:48;;;;;;;10.38;5.75;;;;;;;4.20;63.16;100375.38;4471530;32;33503;-70
2022/04/13 03:50:17;;;;;;;8.70;6.20;;;;;;;4.41;62.67;100376.41;4484478;32;33169;-70
2022/04/13 03:52:44;;;;;;;9.93;5.80;;;;;;;4.32;63.35;100378.41;4485485;32;33878;-68
2022/04/13 03:55:12;;;;;;;7.47;5.60;;;;;;;4.30;63.17;100377.75;4484258;32;34573;-70
2022/04/13 03:57:39;;;;;;;8.75;6.00;;;;;;;4.58;62.48;100390.38;4483385;32;34243;-69
2022/04/13 04:00:08;;;;;;;8.32;5.28;;;;;;;4.39;63.10;100384.66;4469432;32;33538;-72
2022/04/13 04:02:39;;;;;;;8.38;5.25;;;;;;;4.82;61.85;100391.84;4469595;32;34142;-72
2022/04/13 04:05:07;;;;;;;9.32;5.78;;;;;;;4.62;62.84;100395.22;4467933;32;33964;-68
2022/04/13 04:07:35;;;;;;;9.55;6.03;;;;;;;4.14;64.04;100396.81;4468385;32;34220;-69
2022/04/13 04:10:04;;;;;;;10.77;5.82;;;;;;;4.30;63.36;100394.69;4468595;32;32387;-71
2022/04/13 04:12:39;;;;;;;12.25;6.20;;;;;;;4.84;61.50;100398.69;4467975;32;34184;-69
2022/04/13 04:15:09;;;;;;;8.95;6.20;;;;;;;4.58;62.66;100398.44;4468450;32;34061;-69
2022/04/13 04:17:37;;;;;;;8.90;5.87;;;;;;;4.90;62.58;100397.06;4469057;32;33596;-69
2022/04/13 04:20:06;;;;;;;9.73;5.22;;;;;;;5.27;61.53;100403.09;4468228;32;33705;-69
2022/04/13 04:22:35;;;;;;;8.02;5.47;;;;;;;5.09;61.68;100401.75;4469623;32;34211;-69
2022/04/13 04:25:04;;;;;;;9.25;5.57;;;;;;;5.29;61.78;100403.72;4469354;32;34895;-69
2022/04/13 04:27:32;;;;;;;9.60;6.00;;;;;;;5.47;60.64;100400.53;4468523;32;33704;-72
2022/04/13 04:29:59;;;;;;;8.10;5.12;;;;;;;5.74;59.68;100405.00;4469424;32;33913;-67
2022/04/13 04:32:27;;;;;;;9.25;5.32;;;;;;;6.51;57.86;100407.50;4467906;32;34220;-68
2022/04/13 04:34:55;;;;;;;8.73;4.75;;;;;;;6.47;57.26;100403.56;4469143;32;34055;-70
2022/04/13 04:37:22;;;;;;;8.48;5.43;;;;;;;7.65;54.74;100405.50;4468821;32;33314;-68
2022/04/13 04:39:50;;;;;;;7.35;4.95;;;;;;;8.08;53.24;100413.81;4483427;31;34040;-68
2022/04/13 04:42:17;;;;;;;9.00;5.35;;;;;;;8.11;53.02;100418.78;4480875;32;34131;-69
2022/04/13 04:44:46;;;;;;;10.57;5.68;;;;;;;7.73;53.38;100419.59;4475309;31;34111;-69
2022/04/13 04:47:13;;;;;;;8.07;5.50;;;;;;;7.96;53.33;100423.63;4481700;32;34238;-68
2022/04/13 04:49:42;;;;;;;8.63;5.65;;;;;;;8.47;53.13;100417.34;4478036;32;34630;-68
2022/04/13 04:52:10;;;;;;;10.30;5.65;;;;;;;8.78;51.81;100413.78;4474905;32;34307;-69
2022/04/13 04:54:37;;;;;;;9.15;5.03;;;;;;;9.55;49.70;100416.19;4480076;32;34116;-68
2022/04/13 04:57:05;;;;;;;10.10;5.05;;;;;;;10.29;47.07;100428.81;4469512;32;34820;-67
2022/04/13 04:59:32;;;;;;;8.13;5.28;;;;;;;10.98;46.01;100423.81;4482464;32;33410;-69
2022/04/13 05:02:00;;;;;;;9.75;5.50;;;;;;;11.48;43.55;100424.13;4485122;32;35069;-70
2022/04/13 05:04:28;;;;;;;10.35;5.12;;;;;;;11.72;42.73;100431.44;4485358;32;34816;-68
2022/04/13 05:06:55;;;;;;;6.65;4.72;;;;;;;11.95;41.11;100428.69;4485391;32;33438;-69
2022/04/13 05:09:24;;;;;;;8.35;5.22;;;;;;;12.62;40.13;100432.66;4484321;32;34075;-69
2022/04/13 05:11:52;;;;;;;8.85;6.03;;;;;;;12.30;40.57;100427.72;4477585;32;34183;-66
2022/04/13 05:14:20;;;;;;;8.55;5.60;;;;;;;13.63;38.92;100434.50;4478913;32;33884;-66
2022/04/13 05:16:48;;;;;;;7.57;5.75;;;;;;;13.23;39.15;100430.09;4485075;32;33240;-67
2022/04/13 05:19:16;;;;;;;9.15;5.87;;;;;;;13.63;38.07;100438.06;4484058;32;34337;-67
2022/04/13 05:21:43;;;;;;;9.25;6.30;;;;;;;14.00;38.49;100434.72;4485384;32;34921;-66
2022/04/13 05:24:11;;;;;;;8.50;5.62;;;;;;;14.25;37.58;100431.44;4484825;32;34078;-66
2022/04/13 05:26:39;;;;;;;9.40;5.53;;;;;;;15.36;35.28;100442.81;4485196;32;34170;-66
2022/04/13 05:29:06;;;;;;;12.63;6.72;;;;;;;14.49;35.64;100442.06;4481444;32;33811;-66
2022/04/13 05:31:34;;;;;;;8.60;5.90;;;;;;;13.91;36.14;100442.53;4484763;32;34289;-67
2022/04/13 05:34:01;;;;;;;8.73;4.60;;;;;;;14.86;33.23;100446.81;4484088;32;33041;-66
2022/04/13 05:36:28;;;;;;;10.15;5.57;;;;;;;14.96;32.28;100457.81;4485177;32;33210;-65
2022/04/13 05:38:56;;;;;;;6.93;5.18;;;;;;;13.65;35.33;100456.88;4475115;32;34759;-66
2022/04/13 05:41:24;;;;;;;7.93;5.25;;;;;;;13.81;35.32;100460.66;4469441;32;34320;-65
2022/04/13 05:43:51;;;;;;;8.80;5.40;;;;;;;13.64;35.71;100466.16;4468385;32;35506;-65
2022/04/13 05:46:19;;;;;;;9.25;5.10;;;;;;;13.77;34.72;100464.97;4469135;32;34398;-66
2022/04/13 05:48:47;;;;;;;7.75;4.97;;;;;;;13.13;34.75;100468.91;4476627;32;34001;-66
2022/04/13 05:51:14;;;;;;;8.38;5.70;;;;;;;12.88;36.10;100463.87;4484714;32;35140;-67
2022/04/13 05:53:42;;;;;;;9.82;5.85;;;;;;;13.35;35.48;100460.84;4483666;32;34445;-66
2022/04/13 05:56:09;;;;;;;8.82;5.40;;;;;;;12.96;35.81;100463.47;4471911;32;34224;-68
2022/04/13 05:58:37;;;;;;;8.15;5.25;;;;;;;12.95;35.50;100466.44;4475269;32;34839;-66
2022/04/13 06:01:04;;;;;;;7.60;5.12;;;;;;;12.85;35.93;100473.38;4484742;32;34222;-69
2022/04/13 06:03:32;;;;;;;8.27;5.75;;;;;;;13.02;35.49;100462.47;4484670;32;34151;-67
2022/04/13 06:06:08;;;;;;;9.40;5.93;;;;;;;12.31;37.35;100467.50;4484788;32;33212;-66
2022/04/13 06:08:36;;;;;;;7.05;5.18;;;;;;;12.73;36.90;100465.25;4482617;32;33499;-66
2022/04/13 06:11:04;;;;;;;8.73;6.00;;;;;;;12.67;36.35;100470.84;4470399;32;34037;-66
2022/04/13 06:13:31;;;;;;;8.52;5.80;;;;;;;13.07;35.98;100483.53;4467766;32;34128;-64
2022/04/13 06:15:59;;;;;;;8.85;5.70;;;;;;;12.93;36.22;100483.03;4475929;32;34026;-67
2022/04/13 06:18:26;;;;;;;10.15;5.90;;;;;;;13.67;34.80;100485.59;4484677;32;34333;-74
2022/04/13 06:20:54;;;;;;;10.57;6.40;;;;;;;14.35;33.88;100491.59;4484675;32;34283;-74
2022/04/13 06:23:21;;;;;;;8.20;5.80;;;;;;;14.74;33.82;100493.41;4484651;32;34779;-69
2022/04/13 06:25:49;;;;;;;8.95;5.87;;;;;;;14.62;33.41;100490.00;4483248;32;33428;-72
2022/04/13 06:28:16;;;;;;;10.80;6.78;;;;;;;14.96;32.71;100491.44;4483564;32;33617;-76
2022/04/13 06:30:44;;;;;;;9.25;6.70;;;;;;;15.67;31.88;100490.31;4484781;32;34190;-69
2022/04/13 06:33:12;;;;;;;10.15;6.25;;;;;;;15.56;32.65;100492.16;4482786;32;33993;-64
2022/04/13 06:35:39;;;;;;;10.98;6.75;;;;;;;14.70;32.89;100493.09;4484747;32;33502;-63
2022/04/13 06:38:07;;;;;;;9.95;6.25;;;;;;;14.20;34.28;100504.25;4484632;32;33877;-73
2022/04/13 06:40:34;;;;;;;13.10;6.87;;;;;;;13.85;34.37;100500.00;4484430;32;34295;-64
2022/04/13 06:43:01;;;;;;;12.80;6.62;;;;;;;13.51;35.54;100508.22;4483721;32;33419;-64
2022/04/13 06:45:30;;;;;;;11.35;7.05;;;;;;;13.47;39.22;100498.91;4484393;32;33595;-75
2022/04/13 06:47:57;;;;;;;10.52;7.03;;;;;;;13.32;37.11;100508.47;4484611;32;33966;-74
2022/04/13 06:50:25;;;;;;;12.55;7.22;;;;;;;13.97;34.78;100505.31;4484341;32;33998;-71
2022/04/13 06:52:52;;;;;;;12.50;6.90;;;;;;;14.57;34.43;100501.72;4483611;32;33970;-73
2022/04/13 06:55:20;;;;;;;8.75;5.93;;;;;;;14.56;33.37;100494.63;4484644;32;34425;-70
2022/04/13 06:57:47;;;;;;;8.80;5.47;;;;;;;14.95;32.72;100510.84;4484350;32;33833;-64
2022/04/13 07:00:15;;;;;;;9.15;5.75;;;;;;;15.34;32.14;100497.75;4485663;32;35177;-64
2022/04/13 07:02:42;;;;;;;9.60;6.18;;;;;;;14.76;32.71;100502.19;4485772;32;33798;-70
2022/04/13 07:05:30;;;;;;;8.30;5.05;;;;;;;14.95;33.59;100508.09;4485509;32;33917;-72
2022/04/13 07:07:59;;;;;;;8.35;5.28;;;;;;;14.84;32.40;100509.91;4485921;32;34067;-66
2022/04/13 07:10:27;;;;;;;10.05;5.78;;;;;;;14.87;33.07;100503.91;4484768;32;34074;-72
2022/04/13 07:12:55;;;;;;;9.90;5.80;;;;;;;15.32;31.63;100502.66;4485414;32;34762;-72
2022/04/13 07:15:25;;;;;;;9.75;5.70;;;;;;;15.50;31.42;100500.59;4485582;32;33878;-69
2022/04/13 07:17:52;;;;;;;8.70;5.22;;;;;;;15.14;31.79;100506.62;4485778;32;34100;-63
2022/04/13 07:20:20;;;;;;;6.07;4.07;;;;;;;15.75;31.50;100511.75;4485540;32;35103;-64
2022/04/13 07:22:49;;;;;;;6.90;4.68;;;;;;;16.51;27.61;100517.84;4485680;32;33704;-64
2022/04/13 07:25:17;;;;;;;9.43;4.97;;;;;;;16.73;28.19;100512.13;4484205;32;34399;-74
2022/04/13 07:27:46;;;;;;;6.80;4.60;;;;;;;15.58;30.00;100511.87;4485546;32;34857;-71
2022/04/13 07:30:14;;;;;;;7.30;5.15;;;;;;;15.29;29.77;100513.28;4485594;32;34232;-76
2022/04/13 07:32:45;;;;;;;7.45;4.25;;;;;;;16.05;30.92;100509.44;4485264;32;34695;-72
2022/04/13 07:35:14;;;;;;;6.28;4.25;;;;;;;15.77;28.79;100511.50;4485427;32;33715;-74
2022/04/13 07:37:43;;;;;;;7.20;4.18;;;;;;;16.17;27.35;100510.84;4485327;32;33819;-73
2022/04/13 07:40:12;;;;;;;7.10;4.43;;;;;;;16.05;27.66;100514.94;4485385;32;34139;-74
2022/04/13 07:42:40;;;;;;;7.57;4.75;;;;;;;16.28;28.15;100517.19;4485131;32;35151;-73
2022/04/13 07:45:08;;;;;;;7.37;4.62;;;;;;;16.24;27.23;100518.84;4485091;32;33975;-75
2022/04/13 07:47:37;;;;;;;7.90;4.60;;;;;;;16.68;27.50;100523.91;4485625;32;34788;-74
2022/04/13 07:50:06;;;;;;;7.62;4.80;;;;;;;17.28;26.81;100523.44;4485502;32;34198;-73
2022/04/13 07:52:35;;;;;;;7.07;4.37;;;;;;;16.10;27.49;100514.94;4485106;32;33845;-73
2022/04/13 07:55:03;;;;;;;8.38;4.70;;;;;;;16.32;26.91;100522.97;4485484;32;33396;-71
2022/04/13 07:57:30;;;;;;;6.43;4.35;;;;;;;16.68;28.42;100531.31;4485107;32;33958;-72
2022/04/13 07:59:58;;;;;;;5.93;4.40;;;;;;;17.31;26.15;100526.47;4485060;32;34226;-73
2022/04/13 08:02:27;;;;;;;7.37;4.95;;;;;;;16.78;25.87;100531.31;4485209;32;33810;-74
2022/04/13 08:04:55;;;;;;;8.10;4.12;;;;;;;17.19;26.71;100532.22;4482301;32;33522;-72
2022/04/13 08:07:29;;;;;;;6.62;4.35;;;;;;;16.71;26.84;100528.00;4484977;32;34493;-69
2022/04/13 08:09:57;;;;;;;7.15;4.40;;;;;;;16.15;27.55;100523.97;4485126;32;34402;-72
2022/04/13 08:12:28;;;;;;;6.25;4.22;;;;;;;16.15;27.49;100517.69;4484958;32;33723;-66
2022/04/13 08:14:56;;;;;;;5.53;3.53;;;;;;;16.12;28.24;100530.00;4485068;32;34406;-71
2022/04/13 08:17:25;;;;;;;6.45;3.70;;;;;;;16.85;25.77;100542.06;4483885;32;33741;-70
2022/04/13 08:19:53;;;;;;;6.87;4.37;;;;;;;16.71;26.30;100530.75;4485293;32;34351;-68
2022/04/13 08:22:25;;;;;;;5.12;3.33;;;;;;;16.60;27.71;100541.69;4483279;32;34789;-74
2022/04/13 08:24:53;;;;;;;5.03;3.50;;;;;;;17.00;27.65;100533.88;4485338;32;33272;-74
2022/04/13 08:27:20;;;;;;;5.45;3.62;;;;;;;16.25;27.82;100530.62;4485019;32;34035;-74
2022/04/13 08:29:48;;;;;;;6.05;3.47;;;;;;;15.46;27.24;100526.81;4485253;32;34270;-74
2022/04/13 08:32:17;;;;;;;7.15;3.50;;;;;;;15.13;27.32;100542.41;4485048;32;34870;-74
2022/04/13 08:34:48;;;;;;;5.60;3.05;;;;;;;15.76;27.76;100532.53;4485003;32;33669;-74
2022/04/13 08:37:16;;;;;;;5.20;3.22;;;;;;;16.08;27.65;100528.87;4485078;32;34226;-72
2022/04/13 08:39:43;;;;;;;7.97;3.97;;;;;;;15.00;28.37;100534.66;4485165;32;34997;-75
2022/04/13 08:42:12;;;;;;;6.10;4.20;;;;;;;16.09;26.54;100532.44;4484900;32;33957;-74
2022/04/13 08:44:51;;;;;;;4.32;2.72;;;;;;;16.23;28.09;100528.13;4484808;32;34179;-74
2022/04/13 08:47:23;;;;;;;5.32;3.65;;;;;;;16.69;25.36;100524.72;4484756;32;33764;-74
2022/04/13 08:49:53;;;;;;;5.55;3.55;;;;;;;17.57;26.52;100526.44;4484816;32;35219;-76
2022/04/13 08:52:31;;;;;;;5.18;3.42;;;;;;;18.12;25.66;100532.94;4483914;32;34102;-74
2022/04/13 08:55:14;;;;;;;6.57;4.25;;;;;;;17.72;24.26;100534.66;4484791;32;33112;-76
2022/04/13 08:57:50;;;;;;;6.60;3.67;;;;;;;17.14;26.36;100529.47;4484569;32;34057;-75
2022/04/13 09:00:19;;;;;;;5.28;3.75;;;;;;;17.28;26.57;100537.16;4483260;32;34363;-72
2022/04/13 09:02:47;;;;;;;4.82;3.45;;;;;;;17.34;26.53;100527.81;4482076;32;34780;-71
2022/04/13 09:05:25;;;;;;;8.20;4.28;;;;;;;17.16;25.91;100526.47;4482129;32;33543;-73
2022/04/13 09:08:10;;;;;;;6.53;4.07;;;;;;;16.50;27.18;100527.97;4481729;32;34041;-72
2022/04/13 09:10:39;;;;;;;7.05;4.12;;;;;;;16.93;29.22;100525.91;4482579;32;34994;-73
2022/04/13 09:13:10;;;;;;;5.82;3.72;;;;;;;16.30;27.37;100517.75;4483836;32;34773;-71
2022/04/13 09:15:41;;;;;;;5.70;3.85;;;;;;;15.43;28.39;100528.19;4484134;32;34217;-73
2022/04/13 09:18:15;;;;;;;6.28;3.25;;;;;;;15.68;26.85;100527.53;4484358;32;34730;-74
2022/04/13 09:20:43;;;;;;;6.28;3.50;;;;;;;15.44;27.45;100521.59;4480923;32;34920;-67
2022/04/13 09:23:12;;;;;;;6.12;3.78;;;;;;;15.40;28.54;100523.25;4483743;32;33793;-75
2022/04/13 09:25:40;;;;;;;6.47;3.70;;;;;;;15.31;28.52;100527.53;4484226;32;34335;-75
2022/04/13 09:28:08;;;;;;;7.62;3.55;;;;;;;15.47;28.05;100521.09;4483950;32;34092;-67
2022/04/13 09:30:35;;;;;;;5.50;3.78;;;;;;;16.18;28.44;100520.72;4481871;32;34028;-70
2022/04/13 09:33:04;;;;;;;5.25;3.75;;;;;;;16.27;27.09;100510.09;4484121;32;33888;-68
2022/04/13 09:35:32;;;;;;;5.78;3.53;;;;;;;16.38;26.99;100517.22;4484849;32;33405;-69
2022/04/13 09:38:01;;;;;;;6.22;3.85;;;;;;;16.15;28.01;100513.03;4486075;32;34084;-67
2022/04/13 09:40:33;;;;;;;5.82;3.83;;;;;;;16.17;28.42;100521.81;4486472;32;34092;-67
2022/04/13 09:43:11;;;;;;;6.12;3.90;;;;;;;16.50;26.76;100511.53;4485623;32;34022;-66
2022/04/13 09:45:42;;;;;;;6.65;4.03;;;;;;;16.23;28.23;100508.16;4485240;32;33312;-68
2022/04/13 09:48:12;;;;;;;6.03;3.60;;;;;;;16.29;28.83;100516.13;4486147;32;34051;-69
2022/04/13 09:50:42;;;;;;;8.25;3.80;;;;;;;16.48;28.17;100502.75;4486381;32;34307;-70
2022/04/13 09:53:10;;;;;;;6.45;3.75;;;;;;;16.50;27.59;100506.06;4484896;32;33687;-70
2022/04/13 09:55:42;;;;;;;7.00;4.30;;;;;;;16.84;28.30;100502.03;4477808;32;33425;-75
2022/04/13 09:58:12;;;;;;;7.30;4.20;;;;;;;16.53;28.54;100507.44;4469024;32;34516;-71
2022/04/13 10:00:42;;;;;;;9.30;4.50;;;;;;;16.66;27.44;100498.69;4469911;32;34240;-67
2022/04/13 10:03:11;;;;;;;8.85;4.65;;;;;;;16.77;27.63;100494.87;4470036;32;33838;-68
2022/04/13 10:05:42;;;;;;;6.82;3.80;;;;;;;16.88;27.22;100492.19;4470999;32;34333;-70
2022/04/13 10:08:11;;;;;;;6.10;3.97;;;;;;;17.13;26.05;100494.13;4484732;32;34564;-67
2022/04/13 10:10:46;;;;;;;6.82;4.07;;;;;;;16.76;28.05;100492.38;4485679;32;33884;-69
2022/04/13 10:13:30;;;;;;;7.68;4.32;;;;;;;17.11;27.04;100491.66;4485234;32;33822;-69
2022/04/13 10:16:00;;;;;;;10.18;3.92;;;;;;;17.20;26.64;100490.00;4477501;32;34170;-71
2022/04/13 10:18:28;;;;;;;7.28;4.35;;;;;;;17.78;26.45;100502.53;4469205;32;34765;-69
2022/04/13 10:20:55;;;;;;;6.53;3.95;;;;;;;17.46;25.93;100495.47;4468571;32;34961;-67
2022/04/13 10:23:25;;;;;;;6.28;3.90;;;;;;;17.55;27.83;100492.97;4470319;32;34484;-67
2022/04/13 10:26:09;;;;;;;6.22;3.75;;;;;;;17.35;26.32;100491.91;4469019;32;33548;-67
2022/04/13 10:28:46;;;;;;;6.65;4.00;;;;;;;18.00;25.63;100485.75;4470082;32;33860;-69
2022/04/13 10:31:14;;;;;;;6.32;3.80;;;;;;;18.60;25.58;100483.00;4470075;32;34203;-68
2022/04/13 10:33:46;;;;;;;6.35;3.85;;;;;;;18.95;25.72;100475.62;4468968;32;33871;-69
2022/04/13 10:36:17;;;;;;;6.62;3.97;;;;;;;18.90;24.43;100473.75;4468517;32;34043;-69
2022/04/13 10:38:44;;;;;;;8.35;4.20;;;;;;;18.47;24.07;100483.63;4470207;32;33994;-68
2022/04/13 10:41:16;;;;;;;6.05;3.78;;;;;;;19.04;25.55;100471.97;4469929;32;35087;-71
2022/04/13 10:43:47;;;;;;;6.93;3.78;;;;;;;18.62;24.08;100476.09;4470223;32;34632;-73
2022/04/13 10:46:18;;;;;;;6.57;4.05;;;;;;;18.48;24.64;100464.09;4474104;32;34320;-71
2022/04/13 10:48:48;;;;;;;7.68;4.37;;;;;;;17.85;24.31;100461.91;4486058;32;34862;-73
2022/04/13 10:51:20;;;;;;;6.47;4.00;;;;;;;18.30;25.70;100467.50;4484230;32;34223;-71
2022/04/13 10:54:02;;;;;;;6.57;4.20;;;;;;;19.25;24.91;100453.34;4484877;32;34735;-72
2022/04/13 10:56:33;;;;;;;6.15;4.35;;;;;;;18.72;24.84;100452.38;4484665;32;33468;-71
2022/04/13 10:59:04;;;;;;;7.00;4.60;;;;;;;18.88;23.45;100453.13;4484424;32;33951;-72
2022/04/13 11:01:38;;;;;;;6.40;4.18;;;;;;;19.53;23.11;100452.81;4485673;32;33996;-72
2022/04/13 11:04:07;;;;;;;;;;;;;;;19.54;23.03;100447.00;4484975;32;35566;-73
2022/04/13 11:06:35;;;;;;;6.95;4.47;;;;;;;18.62;23.90;100443.13;4485011;32;34218;-73
2022/04/13 11:09:07;;;;;;;7.15;4.07;;;;;;;19.00;24.21;100450.81;4485658;32;34763;-70
2022/04/13 11:11:36;;;;;;;9.00;4.62;;;;;;;19.41;24.52;100448.50;4484311;32;34257;-72
2022/04/13 11:14:40;;;;;;;7.55;4.07;;;;;;;18.13;23.99;100448.62;4484830;32;33792;-72
2022/04/13 11:17:07;;;;;;;7.03;4.07;;;;;;;18.76;23.90;100440.53;4472095;32;33238;-72
2022/04/13 11:19:35;;;;;;;8.15;4.40;;;;;;;18.73;23.70;100432.88;4485240;32;34101;-72
2022/04/13 11:22:02;;;;;;;8.07;4.30;;;;;;;18.76;24.19;100428.72;4485731;32;33723;-71
2022/04/13 11:24:54;;;;;;;7.90;4.40;;;;;;;19.36;23.95;100428.50;4485629;32;33700;-71
2022/04/13 11:27:22;;;;;;;8.57;4.45;;;;;;;18.43;25.22;100425.66;4485384;32;33483;-72
2022/04/13 11:29:59;;;;;;;7.15;4.40;;;;;;;19.06;26.23;100433.19;4485544;32;33991;-72
2022/04/13 11:32:31;;;;;;;6.25;4.35;;;;;;;19.42;25.26;100422.66;4482605;31;35108;-70
2022/04/13 11:35:00;;;;;;;8.27;4.40;;;;;;;20.47;22.04;100421.88;4482964;32;33811;-70
2022/04/13 11:37:33;;;;;;;6.10;3.60;;;;;;;20.58;25.12;100417.91;4484156;32;33129;-69